Hilldale, Tennessee
Current Conditions -  °F | °C
As of 7:52 AM on Sunday 23 Nov 2014 (Local Time) from KCKV Reporting Station
Overcast Overcast  
Wind Chill: 56°   Ceiling: 2500
Heat Index: 56°   Visibility: 10mi
Dew Point: 45°   Wind: 13mph
Humidity: 67%   Direction: 130°SE
Pressure: 29.83"   Gusts: NA
Location:  36.4964°N, 87.234°W
Report Text: KCKV 231352Z AUTO 13011KT 10SM OVC025 13/07 A2983 RMK AO2 SLP101 T01330072 $
Loading
Personal Weather Stations






























Interactive Weather Map New forecast layout! Learn more

10-Day Weather Forecast

Advertisements
Track Severe Weather on mobile